Time;durP1;ratioP1;P1;durP2;ratioP2;P2;SDS_P1;SDS_P2;PMS_P1;PMS_P2;Temp;Humidity;BMP_temperature;BMP_pressure;BME280_temperature;BME280_humidity;BME280_pressure;Samples;Min_cycle;Max_cycle;Signal;HPM_P1;HPM_P2
2023/04/18 00:01:54;;;;;;;;;;;6.50;99.90;;;;;;5077198;28;20299;-80
2023/04/18 00:04:20;;;;;;;;;;;6.50;99.90;;;;;;5042924;28;20478;-80
2023/04/18 00:06:46;;;;;;;;;;;6.50;99.90;;;;;;5093665;28;19924;-80
2023/04/18 00:09:11;;;;;;;;;;;6.40;99.90;;;;;;5077191;28;20341;-80
2023/04/18 00:11:37;;;;;;;;;;;6.30;99.90;;;;;;5075354;28;19925;-80
2023/04/18 00:14:03;;;;;;;;;;;6.30;99.90;;;;;;5092054;28;19983;-79
2023/04/18 00:16:28;;;;;;;;;;;6.20;99.90;;;;;;5075219;28;19934;-80
2023/04/18 00:18:55;;;;;;;;;;;6.20;99.90;;;;;;5091711;28;20017;-80
2023/04/18 00:21:21;;;;;;;;;;;6.20;99.90;;;;;;5064707;28;19928;-80
2023/04/18 00:23:47;;;;;;;;;;;6.10;99.90;;;;;;5073409;28;19924;-80
2023/04/18 00:26:12;;;;;;;;;;;6.10;99.90;;;;;;5092625;28;19931;-80
2023/04/18 00:28:38;;;;;;;;;;;6.10;99.90;;;;;;5092857;28;20291;-80
2023/04/18 00:31:03;;;;;;;;;;;6.10;99.90;;;;;;5076339;28;19985;-80
2023/04/18 00:33:29;;;;;;;;;;;6.10;99.90;;;;;;5092229;28;19925;-80
2023/04/18 00:35:55;;;;;;;;;;;6.10;99.90;;;;;;5067341;28;20180;-80
2023/04/18 00:38:20;;;;;;;;;;;6.00;99.90;;;;;;5077309;28;19925;-80
2023/04/18 00:40:46;;;;;;;;;;;6.00;99.90;;;;;;5077135;28;19935;-80
2023/04/18 00:43:12;;;;;;;;;;;5.90;99.90;;;;;;5077262;28;19987;-80
2023/04/18 00:45:37;;;;;;;;;;;5.90;99.90;;;;;;5109190;28;19924;-80
2023/04/18 00:48:03;;;;;;;;;;;5.90;99.90;;;;;;5077016;28;19955;-80
2023/04/18 00:50:29;;;;;;;;;;;5.90;99.90;;;;;;5076610;28;19929;-80
2023/04/18 00:52:54;;;;;;;;;;;5.90;99.90;;;;;;5062551;28;19925;-80
2023/04/18 00:55:20;;;;;;;;;;;5.90;99.90;;;;;;5062474;28;19975;-80
2023/04/18 00:57:46;;;;;;;;;;;5.90;99.90;;;;;;5093257;28;19933;-80
2023/04/18 01:00:12;;;;;;;;;;;5.90;99.90;;;;;;5076602;28;19925;-79
2023/04/18 01:02:38;;;;;;;;;;;5.90;99.90;;;;;;5074370;28;19924;-80
2023/04/18 01:05:05;;;;;;;;;;;5.90;99.90;;;;;;5091800;28;19931;-80
2023/04/18 01:07:32;;;;;;;;;;;5.80;99.90;;;;;;5058482;28;20011;-80
2023/04/18 01:09:58;;;;;;;;;;;5.80;99.90;;;;;;5076368;28;19928;-80
2023/04/18 01:12:23;;;;;;;;;;;5.80;99.90;;;;;;5093171;28;19931;-80
2023/04/18 01:14:49;;;;;;;;;;;5.80;99.90;;;;;;5063775;28;20429;-79
2023/04/18 01:17:15;;;;;;;;;;;5.80;99.90;;;;;;5089376;28;19931;-80
2023/04/18 01:19:40;;;;;;;;;;;5.70;99.90;;;;;;5058961;28;19936;-80
2023/04/18 01:22:06;;;;;;;;;;;5.80;99.90;;;;;;5075683;28;19928;-80
2023/04/18 01:24:32;;;;;;;;;;;5.80;99.90;;;;;;5058134;28;19970;-80
2023/04/18 01:26:57;;;;;;;;;;;5.80;99.90;;;;;;5059169;28;19924;-80
2023/04/18 01:29:26;;;;;;;;;;;5.80;99.90;;;;;;5059387;28;19935;-80
2023/04/18 01:31:52;;;;;;;;;;;5.70;99.90;;;;;;5064736;28;19997;-80
2023/04/18 01:34:18;;;;;;;;;;;5.70;99.90;;;;;;5080026;28;19955;-80
2023/04/18 01:36:44;;;;;;;;;;;5.70;99.90;;;;;;5071951;28;20569;-80
2023/04/18 01:39:10;;;;;;;;;;;5.70;99.90;;;;;;5075465;28;19924;-80
2023/04/18 01:41:35;;;;;;;;;;;5.60;99.90;;;;;;5074471;28;19979;-80
2023/04/18 01:44:01;;;;;;;;;;;5.60;99.90;;;;;;5059764;28;19946;-80
2023/04/18 01:46:27;;;;;;;;;;;5.60;99.90;;;;;;5074139;28;19925;-80
2023/04/18 01:48:53;;;;;;;;;;;5.60;99.90;;;;;;5090467;28;20092;-80
2023/04/18 01:51:18;;;;;;;;;;;5.60;99.90;;;;;;5092585;28;20517;-80
2023/04/18 01:53:44;;;;;;;;;;;5.50;99.90;;;;;;5072587;28;19924;-80
2023/04/18 01:56:09;;;;;;;;;;;5.60;99.90;;;;;;5090862;28;19939;-80
2023/04/18 01:58:35;;;;;;;;;;;5.50;99.90;;;;;;5090567;28;20011;-79
2023/04/18 02:01:01;;;;;;;;;;;5.50;99.90;;;;;;5091161;28;19924;-80
2023/04/18 02:03:26;;;;;;;;;;;5.60;99.90;;;;;;5059143;28;20395;-80
2023/04/18 02:05:52;;;;;;;;;;;5.60;99.90;;;;;;5093544;28;19959;-79
2023/04/18 02:08:18;;;;;;;;;;;5.60;99.90;;;;;;5058857;28;19931;-79
2023/04/18 02:10:43;;;;;;;;;;;5.60;99.90;;;;;;5074825;28;20007;-79
2023/04/18 02:13:09;;;;;;;;;;;5.60;99.90;;;;;;5090177;28;19935;-80
2023/04/18 02:15:35;;;;;;;;;;;5.70;99.90;;;;;;5090087;28;20370;-79
2023/04/18 02:18:01;;;;;;;;;;;5.70;99.90;;;;;;5068387;28;19925;-80
2023/04/18 02:20:30;;;;;;;;;;;5.70;99.90;;;;;;5087838;28;19931;-80
2023/04/18 02:22:57;;;;;;;;;;;5.70;99.90;;;;;;5086420;28;19928;-80
2023/04/18 02:25:25;;;;;;;;;;;5.70;99.90;;;;;;5059316;28;19940;-80
2023/04/18 02:27:51;;;;;;;;;;;5.80;99.90;;;;;;5036939;28;19928;-80
2023/04/18 02:30:17;;;;;;;;;;;5.80;99.90;;;;;;5067320;28;19947;-80
2023/04/18 02:32:42;;;;;;;;;;;5.80;99.90;;;;;;5039995;28;19948;-80
2023/04/18 02:35:09;;;;;;;;;;;5.80;99.90;;;;;;5082024;28;19972;-80
2023/04/18 02:37:34;;;;;;;;;;;5.90;99.90;;;;;;5039510;28;19925;-80
2023/04/18 02:40:00;;;;;;;;;;;5.90;99.90;;;;;;5063979;28;19925;-80
2023/04/18 02:42:26;;;;;;;;;;;5.90;99.90;;;;;;5062657;28;19951;-80
2023/04/18 02:44:51;;;;;;;;;;;6.00;99.90;;;;;;5082857;28;19931;-80
2023/04/18 02:47:17;;;;;;;;;;;6.00;99.90;;;;;;5096785;28;19925;-80
2023/04/18 02:49:42;;;;;;;;;;;6.00;99.90;;;;;;5095260;28;19924;-81
2023/04/18 02:52:08;;;;;;;;;;;6.00;99.90;;;;;;5096677;28;19924;-81
2023/04/18 02:54:33;;;;;;;;;;;6.00;99.90;;;;;;5094989;28;19993;-80
2023/04/18 02:57:00;;;;;;;;;;;6.00;99.90;;;;;;5079291;28;19985;-80
2023/04/18 02:59:25;;;;;;;;;;;6.00;99.90;;;;;;5078988;28;19947;-79
2023/04/18 03:01:51;;;;;;;;;;;6.00;99.90;;;;;;5078891;28;19924;-80
2023/04/18 03:04:17;;;;;;;;;;;6.00;99.90;;;;;;5074847;28;19924;-80
2023/04/18 03:06:42;;;;;;;;;;;6.00;99.90;;;;;;5074790;28;19933;-80
2023/04/18 03:09:08;;;;;;;;;;;6.00;99.90;;;;;;5097315;28;19959;-80
2023/04/18 03:11:33;;;;;;;;;;;6.00;99.90;;;;;;5065574;28;19931;-80
2023/04/18 03:13:59;;;;;;;;;;;6.00;99.90;;;;;;5096282;28;19924;-79
2023/04/18 03:16:25;;;;;;;;;;;6.00;99.90;;;;;;5075939;28;19971;-79
2023/04/18 03:18:50;;;;;;;;;;;6.00;99.90;;;;;;5091934;28;19967;-79
2023/04/18 03:21:16;;;;;;;;;;;6.00;99.90;;;;;;5077802;28;19935;-80
2023/04/18 03:23:42;;;;;;;;;;;5.90;99.90;;;;;;5078977;28;20287;-79
2023/04/18 03:26:07;;;;;;;;;;;5.90;99.90;;;;;;5058338;28;19925;-80
2023/04/18 03:28:33;;;;;;;;;;;5.80;99.90;;;;;;5092714;28;19936;-79
2023/04/18 03:30:59;;;;;;;;;;;5.80;99.90;;;;;;5092111;28;19924;-80
2023/04/18 03:33:25;;;;;;;;;;;5.80;99.90;;;;;;5061707;28;20066;-80
2023/04/18 03:35:50;;;;;;;;;;;5.80;99.90;;;;;;5069995;28;19924;-80
2023/04/18 03:38:16;;;;;;;;;;;5.80;99.90;;;;;;5076400;28;19999;-80
2023/04/18 03:40:43;;;;;;;;;;;5.80;99.90;;;;;;5076150;28;20024;-79
2023/04/18 03:43:09;;;;;;;;;;;5.70;99.90;;;;;;5064876;28;19958;-80
2023/04/18 03:45:35;;;;;;;;;;;5.70;99.90;;;;;;5092337;28;19925;-80
2023/04/18 03:48:00;;;;;;;;;;;5.70;99.90;;;;;;5076682;28;19946;-80
2023/04/18 03:50:26;;;;;;;;;;;5.70;99.90;;;;;;5093773;28;19951;-80
2023/04/18 03:52:52;;;;;;;;;;;5.70;99.90;;;;;;5094155;28;20359;-80
2023/04/18 03:55:18;;;;;;;;;;;5.70;99.90;;;;;;5093451;28;20023;-80
2023/04/18 03:57:44;;;;;;;;;;;5.70;99.90;;;;;;5090958;28;19924;-80
2023/04/18 04:00:11;;;;;;;;;;;5.70;99.90;;;;;;5077516;28;19928;-80
2023/04/18 04:02:37;;;;;;;;;;;5.80;99.90;;;;;;5091167;28;19939;-79
2023/04/18 04:05:03;;;;;;;;;;;5.80;99.90;;;;;;5062327;28;19943;-80
2023/04/18 04:07:30;;;;;;;;;;;5.80;99.90;;;;;;5092332;28;19950;-80
2023/04/18 04:09:57;;;;;;;;;;;5.90;99.90;;;;;;5094508;28;20412;-80
2023/04/18 04:12:23;;;;;;;;;;;5.90;99.90;;;;;;5078372;28;20007;-80
2023/04/18 04:14:49;;;;;;;;;;;6.00;99.90;;;;;;5094515;28;19958;-80
2023/04/18 04:17:14;;;;;;;;;;;6.00;99.90;;;;;;5057785;28;19925;-80
2023/04/18 04:19:40;;;;;;;;;;;6.10;99.90;;;;;;5058260;28;19930;-79
2023/04/18 04:22:05;;;;;;;;;;;6.10;99.90;;;;;;5077382;28;20035;-80
2023/04/18 04:24:32;;;;;;;;;;;6.10;99.90;;;;;;5091530;28;19951;-80
2023/04/18 04:26:58;;;;;;;;;;;6.20;99.90;;;;;;5074990;28;20499;-80
2023/04/18 04:29:25;;;;;;;;;;;6.20;99.90;;;;;;5062930;28;19936;-79
2023/04/18 04:31:50;;;;;;;;;;;6.30;99.90;;;;;;5073003;28;19931;-80
2023/04/18 04:34:16;;;;;;;;;;;6.30;99.90;;;;;;5049337;28;19999;-80
2023/04/18 04:36:43;;;;;;;;;;;6.30;99.90;;;;;;5092651;28;19980;-79
2023/04/18 04:39:10;;;;;;;;;;;6.30;99.90;;;;;;5040268;28;19931;-80
2023/04/18 04:41:36;;;;;;;;;;;6.30;99.90;;;;;;5086987;28;19924;-80
2023/04/18 04:44:03;;;;;;;;;;;6.30;99.90;;;;;;5078364;28;20357;-80
2023/04/18 04:46:29;;;;;;;;;;;6.30;99.90;;;;;;5060180;28;19928;-79
2023/04/18 04:48:55;;;;;;;;;;;6.40;99.90;;;;;;5094347;28;19924;-80
2023/04/18 04:51:20;;;;;;;;;;;6.40;99.90;;;;;;5076639;28;19959;-80
2023/04/18 04:53:46;;;;;;;;;;;6.40;99.90;;;;;;5078338;28;19951;-80
2023/04/18 04:56:12;;;;;;;;;;;6.40;99.90;;;;;;5067443;28;19924;-80
2023/04/18 04:58:37;;;;;;;;;;;6.40;99.90;;;;;;5076178;28;20022;-80
2023/04/18 05:01:03;;;;;;;;;;;6.50;99.90;;;;;;5087493;28;19993;-80
2023/04/18 05:03:29;;;;;;;;;;;6.50;99.90;;;;;;5057742;28;19931;-80
2023/04/18 05:05:54;;;;;;;;;;;6.50;99.90;;;;;;5075749;28;19928;-80
2023/04/18 05:08:20;;;;;;;;;;;6.50;99.90;;;;;;5075952;28;19924;-80
2023/04/18 05:10:46;;;;;;;;;;;6.50;99.90;;;;;;5071848;28;19933;-81
2023/04/18 05:13:12;;;;;;;;;;;6.50;99.90;;;;;;5081289;28;20326;-80
2023/04/18 05:15:38;;;;;;;;;;;6.50;99.90;;;;;;5074088;28;19925;-81
2023/04/18 05:18:04;;;;;;;;;;;6.60;99.90;;;;;;5092297;28;20108;-81
2023/04/18 05:20:29;;;;;;;;;;;6.60;99.90;;;;;;5075409;28;20455;-81
2023/04/18 05:22:55;;;;;;;;;;;6.60;99.90;;;;;;5091345;28;20403;-81
2023/04/18 05:25:20;;;;;;;;;;;6.60;99.90;;;;;;5094208;28;19964;-81
2023/04/18 05:27:46;;;;;;;;;;;6.60;99.90;;;;;;5042591;28;19959;-81
2023/04/18 05:30:11;;;;;;;;;;;6.60;99.90;;;;;;5043750;28;20019;-81
2023/04/18 05:32:40;;;;;;;;;;;6.60;99.90;;;;;;5089679;28;19928;-81
2023/04/18 05:35:06;;;;;;;;;;;6.60;99.90;;;;;;5071545;28;19929;-82
2023/04/18 05:37:31;;;;;;;;;;;6.60;99.90;;;;;;5074523;28;19988;-82
2023/04/18 05:39:57;;;;;;;;;;;6.60;99.90;;;;;;5059640;28;19924;-82
2023/04/18 05:42:23;;;;;;;;;;;6.60;99.90;;;;;;5073341;28;19936;-82
2023/04/18 05:44:48;;;;;;;;;;;6.50;99.90;;;;;;5087464;28;19963;-82
2023/04/18 05:47:14;;;;;;;;;;;6.60;99.90;;;;;;5072649;28;19925;-82
2023/04/18 05:49:40;;;;;;;;;;;6.60;99.90;;;;;;5087667;28;19925;-82
2023/04/18 05:52:05;;;;;;;;;;;6.60;99.90;;;;;;5091719;28;19935;-82
2023/04/18 05:54:31;;;;;;;;;;;6.60;99.90;;;;;;5037398;28;19925;-81
2023/04/18 05:56:57;;;;;;;;;;;6.60;99.90;;;;;;5076774;28;20326;-81
2023/04/18 05:59:22;;;;;;;;;;;6.60;99.90;;;;;;5091245;28;19928;-81
2023/04/18 06:01:48;;;;;;;;;;;6.60;99.90;;;;;;5065055;28;19925;-81
2023/04/18 06:04:14;;;;;;;;;;;6.60;99.90;;;;;;5075638;28;19944;-81
2023/04/18 06:06:40;;;;;;;;;;;6.60;99.90;;;;;;5076770;28;19952;-81
2023/04/18 06:09:06;;;;;;;;;;;6.60;99.90;;;;;;5096029;28;19931;-81
2023/04/18 06:11:34;;;;;;;;;;;6.70;99.90;;;;;;5067072;28;19929;-82
2023/04/18 06:14:00;;;;;;;;;;;6.70;99.90;;;;;;5077370;28;19924;-81
2023/04/18 06:16:25;;;;;;;;;;;6.70;99.90;;;;;;5095686;28;19930;-82
2023/04/18 06:18:51;;;;;;;;;;;6.80;99.90;;;;;;5093823;28;19951;-81
2023/04/18 06:21:17;;;;;;;;;;;6.80;99.90;;;;;;5077485;28;19971;-81
2023/04/18 06:23:42;;;;;;;;;;;6.90;99.90;;;;;;5094458;28;19995;-81
2023/04/18 06:26:08;;;;;;;;;;;6.90;99.90;;;;;;5096351;28;19925;-82
2023/04/18 06:28:34;;;;;;;;;;;6.90;99.90;;;;;;5096587;28;20371;-81
2023/04/18 06:31:00;;;;;;;;;;;7.00;99.90;;;;;;5096344;28;19925;-82
2023/04/18 06:33:25;;;;;;;;;;;7.10;99.90;;;;;;5050587;28;19982;-82
2023/04/18 06:35:51;;;;;;;;;;;7.10;99.90;;;;;;5076340;28;19925;-81
2023/04/18 06:38:17;;;;;;;;;;;7.20;99.90;;;;;;5087724;28;19932;-81
2023/04/18 06:40:42;;;;;;;;;;;7.30;99.90;;;;;;5097555;28;20522;-82
2023/04/18 06:43:08;;;;;;;;;;;7.40;99.90;;;;;;5086722;28;19936;-81
2023/04/18 06:45:34;;;;;;;;;;;7.50;99.90;;;;;;5070067;28;20359;-82
2023/04/18 06:48:01;;;;;;;;;;;7.60;99.90;;;;;;5043844;28;19929;-81
2023/04/18 06:50:27;;;;;;;;;;;7.60;99.90;;;;;;5086328;28;19956;-81
2023/04/18 06:52:53;;;;;;;;;;;7.70;99.90;;;;;;5061010;28;19982;-82
2023/04/18 06:55:19;;;;;;;;;;;7.80;99.90;;;;;;5089571;28;19925;-80
2023/04/18 06:57:44;;;;;;;;;;;7.80;99.90;;;;;;5071943;28;19929;-82
2023/04/18 07:00:10;;;;;;;;;;;7.90;99.90;;;;;;5061527;28;20311;-82
2023/04/18 07:02:36;;;;;;;;;;;8.00;99.90;;;;;;5073741;28;19924;-82
2023/04/18 07:05:02;;;;;;;;;;;8.20;99.90;;;;;;5077736;28;19931;-82
2023/04/18 07:07:28;;;;;;;;;;;8.40;99.90;;;;;;5045534;28;19978;-82
2023/04/18 07:09:53;;;;;;;;;;;8.40;99.90;;;;;;5079648;28;19925;-82
2023/04/18 07:12:19;;;;;;;;;;;8.50;99.90;;;;;;5076917;28;20546;-82
2023/04/18 07:14:45;;;;;;;;;;;8.70;99.90;;;;;;5077052;28;20372;-80
2023/04/18 07:17:11;;;;;;;;;;;9.10;99.90;;;;;;5062382;28;19929;-81
2023/04/18 07:19:37;;;;;;;;;;;9.50;99.90;;;;;;5073388;28;19933;-81
2023/04/18 07:22:02;;;;;;;;;;;9.60;99.90;;;;;;5057918;28;19950;-81
2023/04/18 07:24:28;;;;;;;;;;;9.70;99.90;;;;;;5093779;28;19925;-81
2023/04/18 07:26:53;;;;;;;;;;;10.10;99.90;;;;;;5093794;28;19928;-81
2023/04/18 07:29:19;;;;;;;;;;;10.50;99.90;;;;;;5076204;28;19939;-83
2023/04/18 07:31:45;;;;;;;;;;;11.00;99.90;;;;;;5048542;28;19931;-81
2023/04/18 07:34:10;;;;;;;;;;;11.20;99.90;;;;;;5086821;28;19933;-80
2023/04/18 07:36:36;;;;;;;;;;;11.40;99.90;;;;;;5086178;28;19943;-81
2023/04/18 07:39:02;;;;;;;;;;;11.40;99.90;;;;;;5071114;28;19929;-81
2023/04/18 07:41:28;;;;;;;;;;;11.80;99.90;;;;;;5089694;28;20319;-81
2023/04/18 07:43:53;;;;;;;;;;;12.10;99.90;;;;;;5073298;28;19939;-81
2023/04/18 07:46:19;;;;;;;;;;;12.30;99.90;;;;;;5087477;28;19931;-81
2023/04/18 07:48:45;;;;;;;;;;;12.50;99.90;;;;;;5073743;28;19956;-81
2023/04/18 07:51:11;;;;;;;;;;;12.40;99.90;;;;;;5095279;28;19925;-81
2023/04/18 07:53:36;;;;;;;;;;;12.10;99.90;;;;;;5069857;28;19932;-81
2023/04/18 07:56:02;;;;;;;;;;;12.30;99.90;;;;;;5071179;28;19924;-82
2023/04/18 07:58:28;;;;;;;;;;;12.40;99.90;;;;;;5070021;28;20453;-82
2023/04/18 08:00:53;;;;;;;;;;;12.40;99.90;;;;;;5068848;28;20060;-82
2023/04/18 08:03:19;;;;;;;;;;;11.90;99.90;;;;;;5057839;28;19939;-82
2023/04/18 08:05:45;;;;;;;;;;;11.50;99.90;;;;;;5070381;28;19987;-82
2023/04/18 08:08:10;;;;;;;;;;;11.20;99.90;;;;;;5069317;28;19931;-81
2023/04/18 08:10:36;;;;;;;;;;;11.10;99.90;;;;;;5090671;28;19929;-81
2023/04/18 08:13:02;;;;;;;;;;;10.80;99.90;;;;;;5076373;28;19928;-81
2023/04/18 08:15:30;;;;;;;;;;;10.50;99.90;;;;;;5076123;28;19924;-81
2023/04/18 08:17:56;;;;;;;;;;;10.40;99.90;;;;;;5071962;28;20011;-81
2023/04/18 08:20:21;;;;;;;;;;;10.70;99.90;;;;;;5071911;28;20017;-81
2023/04/18 08:22:47;;;;;;;;;;;10.80;99.90;;;;;;5086621;28;20080;-81
2023/04/18 08:25:12;;;;;;;;;;;10.60;99.90;;;;;;5038642;28;20007;-81
2023/04/18 08:27:38;;;;;;;;;;;10.50;99.90;;;;;;5045213;28;19925;-82
2023/04/18 08:30:04;;;;;;;;;;;10.40;99.90;;;;;;5083888;28;19946;-81
2023/04/18 08:32:30;;;;;;;;;;;10.40;99.90;;;;;;5070592;28;19924;-81
2023/04/18 08:34:56;;;;;;;;;;;10.50;99.90;;;;;;5091037;28;19939;-81
2023/04/18 08:37:22;;;;;;;;;;;10.70;99.90;;;;;;5085883;28;20402;-81
2023/04/18 08:39:47;;;;;;;;;;;10.80;99.90;;;;;;5079706;28;19936;-81
2023/04/18 08:42:20;;;;;;;;;;;10.90;99.90;;;;;;5072735;28;19974;-80
2023/04/18 08:44:46;;;;;;;;;;;11.20;99.90;;;;;;5073615;28;19988;-81
2023/04/18 08:47:11;;;;;;;;;;;11.40;99.90;;;;;;5088554;28;19964;-80
2023/04/18 08:49:37;;;;;;;;;;;11.70;99.90;;;;;;5071588;28;19995;-81
2023/04/18 08:52:08;;;;;;;;;;;12.10;99.90;;;;;;5086810;28;19924;-80
2023/04/18 08:54:36;;;;;;;;;;;12.50;99.90;;;;;;5048211;28;19928;-81
2023/04/18 08:57:06;;;;;;;;;;;12.70;99.90;;;;;;5090201;28;19939;-81
2023/04/18 08:59:34;;;;;;;;;;;12.90;99.90;;;;;;5089436;28;20011;-80
2023/04/18 09:02:01;;;;;;;;;;;12.80;99.90;;;;;;5069579;28;19925;-81
2023/04/18 09:04:35;;;;;;;;;;;12.90;99.90;;;;;;5089505;28;20015;-81
2023/04/18 09:07:01;;;;;;;;;;;12.90;99.90;;;;;;5053314;28;19956;-81
2023/04/18 09:09:38;;;;;;;;;;;13.20;99.90;;;;;;5077547;28;19978;-80
2023/04/18 09:12:07;;;;;;;;;;;13.40;99.90;;;;;;5093078;28;19924;-81
2023/04/18 09:14:35;;;;;;;;;;;13.20;99.90;;;;;;5094025;28;19931;-81
2023/04/18 09:17:00;;;;;;;;;;;13.30;99.90;;;;;;5077924;28;19924;-81
2023/04/18 09:19:27;;;;;;;;;;;13.40;99.90;;;;;;5076273;28;19929;-83
2023/04/18 09:22:00;;;;;;;;;;;13.60;99.90;;;;;;5067652;28;19943;-81
2023/04/18 09:24:27;;;;;;;;;;;14.00;99.90;;;;;;5083436;28;19924;-81
2023/04/18 09:26:54;;;;;;;;;;;14.20;99.90;;;;;;5046789;28;19970;-82
2023/04/18 09:29:23;;;;;;;;;;;14.30;99.10;;;;;;5060905;28;19964;-80
2023/04/18 09:31:53;;;;;;;;;;;14.40;98.70;;;;;;5054560;28;19933;-81
2023/04/18 09:34:19;;;;;;;;;;;14.60;97.00;;;;;;5044488;28;19924;-81
2023/04/18 09:36:45;;;;;;;;;;;14.50;96.70;;;;;;5084745;28;19940;-84
2023/04/18 09:39:25;;;;;;;;;;;14.70;97.90;;;;;;5071182;28;20471;-82
2023/04/18 09:41:57;;;;;;;;;;;14.90;95.80;;;;;;5082520;28;19978;-82
2023/04/18 09:44:22;;;;;;;;;;;15.20;99.20;;;;;;5040419;28;19935;-82
2023/04/18 09:46:48;;;;;;;;;;;15.30;95.70;;;;;;5053510;28;19983;-81
2023/04/18 09:49:15;;;;;;;;;;;15.30;95.00;;;;;;5076039;28;19925;-82
2023/04/18 09:51:41;;;;;;;;;;;14.90;94.50;;;;;;5087786;28;19924;-82
2023/04/18 09:54:09;;;;;;;;;;;14.30;95.10;;;;;;5066600;28;19932;-82
2023/04/18 09:56:36;;;;;;;;;;;14.20;96.70;;;;;;5086549;28;19931;-82
2023/04/18 09:59:07;;;;;;;;;;;14.50;96.80;;;;;;5069500;28;19925;-81
2023/04/18 10:01:32;;;;;;;;;;;14.80;98.40;;;;;;5066814;28;19928;-80
2023/04/18 10:03:59;;;;;;;;;;;15.20;96.30;;;;;;5070467;28;19931;-81
2023/04/18 10:06:26;;;;;;;;;;;15.10;96.60;;;;;;5057617;28;19924;-82
2023/04/18 10:08:52;;;;;;;;;;;15.00;96.60;;;;;;5093281;28;19928;-82
2023/04/18 10:11:18;;;;;;;;;;;15.00;95.40;;;;;;5069998;28;19974;-81
2023/04/18 10:13:46;;;;;;;;;;;15.10;96.70;;;;;;5091314;28;19924;-81
2023/04/18 10:16:11;;;;;;;;;;;14.90;96.70;;;;;;5058946;28;19932;-81
2023/04/18 10:18:37;;;;;;;;;;;14.30;96.30;;;;;;5045960;28;19940;-80
2023/04/18 10:21:03;;;;;;;;;;;13.70;97.00;;;;;;5091079;28;19924;-81
2023/04/18 10:23:34;;;;;;;;;;;13.30;97.90;;;;;;5076054;28;20410;-81
2023/04/18 10:26:00;;;;;;;;;;;13.30;99.90;;;;;;5093331;28;19925;-81
2023/04/18 10:28:27;;;;;;;;;;;13.40;99.90;;;;;;5053990;28;20359;-81
2023/04/18 10:31:01;;;;;;;;;;;13.40;99.90;;;;;;5093190;28;19978;-82
2023/04/18 10:33:44;;;;;;;;;;;13.20;99.40;;;;;;5099447;28;19943;-82
2023/04/18 10:36:11;;;;;;;;;;;12.80;99.90;;;;;;5079015;28;19925;-81
2023/04/18 10:38:44;;;;;;;;;;;12.90;99.90;;;;;;5091674;28;21286;-80
2023/04/18 10:41:21;;;;;;;;;;;13.00;99.90;;;;;;5074595;28;19983;-81
2023/04/18 10:44:06;;;;;;;;;;;13.20;99.90;;;;;;5090310;28;19974;-81
2023/04/18 10:46:32;;;;;;;;;;;13.50;99.90;;;;;;5092682;28;19951;-80
2023/04/18 10:49:16;;;;;;;;;;;13.60;99.90;;;;;;5075683;28;19968;-81
2023/04/18 10:51:43;;;;;;;;;;;13.50;99.90;;;;;;5090313;28;21746;-81
2023/04/18 10:54:10;;;;;;;;;;;13.50;99.90;;;;;;5058854;28;20016;-80
2023/04/18 10:56:35;;;;;;;;;;;13.40;99.90;;;;;;5062231;28;19924;-81
2023/04/18 10:59:02;;;;;;;;;;;13.30;99.90;;;;;;5076135;28;19924;-80
2023/04/18 11:01:31;;;;;;;;;;;13.30;99.90;;;;;;5095186;28;20332;-80
2023/04/18 11:03:57;;;;;;;;;;;13.40;99.90;;;;;;5112708;28;19929;-80
2023/04/18 11:06:26;;;;;;;;;;;13.70;99.90;;;;;;5078611;28;19925;-81
2023/04/18 11:09:07;;;;;;;;;;;14.10;99.60;;;;;;5063627;28;20043;-80
2023/04/18 11:11:33;;;;;;;;;;;14.40;99.80;;;;;;5094287;28;19924;-80
2023/04/18 11:13:58;;;;;;;;;;;14.60;98.80;;;;;;5089956;28;19925;-80
2023/04/18 11:16:25;;;;;;;;;;;14.80;96.70;;;;;;5095679;28;19924;-81
2023/04/18 11:18:51;;;;;;;;;;;14.90;97.40;;;;;;5093642;28;20298;-79
2023/04/18 11:21:16;;;;;;;;;;;14.80;94.40;;;;;;5093523;28;19971;-80
2023/04/18 11:23:42;;;;;;;;;;;14.50;95.80;;;;;;5092196;28;19935;-81
2023/04/18 11:26:08;;;;;;;;;;;14.40;95.10;;;;;;5077190;28;19947;-81
2023/04/18 11:28:33;;;;;;;;;;;14.40;95.40;;;;;;5088844;28;19939;-81
2023/04/18 11:31:00;;;;;;;;;;;14.50;96.60;;;;;;5092049;28;20455;-77
2023/04/18 11:33:27;;;;;;;;;;;14.70;96.70;;;;;;5086982;28;19939;-80
2023/04/18 11:35:55;;;;;;;;;;;14.80;95.30;;;;;;5065902;28;19964;-80
2023/04/18 11:38:26;;;;;;;;;;;14.70;94.30;;;;;;5060909;28;19924;-80
2023/04/18 11:40:51;;;;;;;;;;;14.60;95.10;;;;;;5094285;28;19925;-81
2023/04/18 11:43:23;;;;;;;;;;;14.60;93.20;;;;;;5077160;28;19935;-81
2023/04/18 11:45:56;;;;;;;;;;;14.70;95.10;;;;;;5061381;28;20381;-81
2023/04/18 11:48:23;;;;;;;;;;;14.90;93.70;;;;;;5078263;28;19928;-81
2023/04/18 11:50:48;;;;;;;;;;;14.60;90.70;;;;;;5060897;28;19943;-81
2023/04/18 11:53:29;;;;;;;;;;;14.50;93.00;;;;;;5078230;28;19928;-81
2023/04/18 11:55:55;;;;;;;;;;;14.40;93.30;;;;;;5063221;28;20000;-81
2023/04/18 11:58:28;;;;;;;;;;;14.30;92.70;;;;;;5077482;28;19924;-81
2023/04/18 12:00:54;;;;;;;;;;;14.20;93.70;;;;;;5094364;28;19938;-80
2023/04/18 12:03:21;;;;;;;;;;;14.00;95.00;;;;;;5072753;28;19975;-80
2023/04/18 12:05:46;;;;;;;;;;;14.00;95.50;;;;;;5095009;28;20066;-80
2023/04/18 12:08:19;;;;;;;;;;;14.10;96.50;;;;;;5078247;28;19925;-81
2023/04/18 12:10:45;;;;;;;;;;;14.30;95.70;;;;;;5094467;28;20489;-81
2023/04/18 12:13:11;;;;;;;;;;;14.60;95.10;;;;;;5077094;28;20015;-80
2023/04/18 12:15:38;;;;;;;;;;;15.00;93.70;;;;;;5092777;28;20499;-79
2023/04/18 12:18:04;;;;;;;;;;;15.10;94.50;;;;;;5061938;28;19975;-81
2023/04/18 12:20:35;;;;;;;;;;;15.20;95.30;;;;;;5092567;28;20367;-80
2023/04/18 12:23:02;;;;;;;;;;;15.50;93.70;;;;;;5075547;28;19956;-81
2023/04/18 12:25:28;;;;;;;;;;;15.70;95.50;;;;;;5071309;28;19939;-81
2023/04/18 12:28:13;;;;;;;;;;;15.60;92.70;;;;;;5089135;28;19928;-81
2023/04/18 12:30:38;;;;;;;;;;;15.60;92.30;;;;;;5092278;28;20314;-81
2023/04/18 12:33:05;;;;;;;;;;;15.60;93.60;;;;;;5092859;28;20303;-82
2023/04/18 12:35:31;;;;;;;;;;;15.60;93.60;;;;;;5083390;28;19925;-82
2023/04/18 12:37:58;;;;;;;;;;;15.80;93.90;;;;;;5089783;28;19978;-81
2023/04/18 12:40:25;;;;;;;;;;;15.90;92.50;;;;;;5085104;28;20371;-81
2023/04/18 12:42:51;;;;;;;;;;;16.10;92.70;;;;;;5085086;28;19932;-81
2023/04/18 12:45:17;;;;;;;;;;;16.00;91.60;;;;;;5060245;28;19928;-81
2023/04/18 12:47:44;;;;;;;;;;;16.00;90.90;;;;;;5062326;28;19947;-81
2023/04/18 12:50:11;;;;;;;;;;;15.90;90.30;;;;;;5059797;28;19929;-80
2023/04/18 12:52:37;;;;;;;;;;;16.00;90.20;;;;;;5095075;28;19986;-80
2023/04/18 12:55:03;;;;;;;;;;;16.00;90.90;;;;;;5043594;28;20524;-80
2023/04/18 12:57:29;;;;;;;;;;;16.20;93.10;;;;;;5092605;28;19924;-80
2023/04/18 12:59:54;;;;;;;;;;;16.20;89.50;;;;;;5087020;28;19960;-83
2023/04/18 13:02:20;;;;;;;;;;;16.20;90.50;;;;;;5078538;28;19982;-80
2023/04/18 13:04:46;;;;;;;;;;;16.20;91.10;;;;;;5093388;28;19924;-80
2023/04/18 13:07:11;;;;;;;;;;;16.00;90.60;;;;;;5075750;28;19929;-80
2023/04/18 13:09:37;;;;;;;;;;;15.70;89.80;;;;;;5094322;28;19929;-81
2023/04/18 13:12:03;;;;;;;;;;;15.60;88.80;;;;;;5093586;28;19924;-80
2023/04/18 13:14:28;;;;;;;;;;;15.40;90.20;;;;;;5077110;28;20380;-81
2023/04/18 13:16:54;;;;;;;;;;;15.40;90.30;;;;;;5079141;28;19928;-81
2023/04/18 13:19:19;;;;;;;;;;;15.50;90.30;;;;;;5043247;28;19963;-81
2023/04/18 13:21:45;;;;;;;;;;;15.70;88.80;;;;;;5077120;28;19924;-81
2023/04/18 13:24:11;;;;;;;;;;;15.60;89.80;;;;;;5093014;28;20304;-81
2023/04/18 13:26:36;;;;;;;;;;;15.70;87.80;;;;;;5093801;28;19924;-81
2023/04/18 13:29:03;;;;;;;;;;;15.80;87.60;;;;;;5075884;28;19933;-81
2023/04/18 13:31:28;;;;;;;;;;;15.90;89.90;;;;;;5093251;28;19924;-81
2023/04/18 13:33:54;;;;;;;;;;;16.00;88.90;;;;;;5060156;28;19935;-80
2023/04/18 13:36:20;;;;;;;;;;;16.00;90.80;;;;;;5062398;28;19936;-81
2023/04/18 13:38:45;;;;;;;;;;;15.90;80.70;;;;;;5076531;28;19924;-81
2023/04/18 13:41:11;;;;;;;;;;;15.90;86.70;;;;;;5076154;28;20003;-81
2023/04/18 13:43:36;;;;;;;;;;;15.90;87.70;;;;;;5093284;28;19928;-81
2023/04/18 13:46:02;;;;;;;;;;;15.80;85.80;;;;;;5076094;28;19939;-81
2023/04/18 13:48:28;;;;;;;;;;;15.60;87.30;;;;;;5094221;28;20011;-81
2023/04/18 13:50:53;;;;;;;;;;;15.30;84.50;;;;;;5076622;28;19951;-80
2023/04/18 13:53:19;;;;;;;;;;;15.10;85.20;;;;;;5075972;28;19950;-81
2023/04/18 13:55:45;;;;;;;;;;;15.10;85.30;;;;;;5086172;28;19928;-82
2023/04/18 13:58:11;;;;;;;;;;;15.30;86.90;;;;;;5070017;28;19981;-80
2023/04/18 14:00:36;;;;;;;;;;;15.40;84.70;;;;;;5090259;28;20552;-79
2023/04/18 14:03:02;;;;;;;;;;;15.50;86.00;;;;;;5076876;28;19928;-80
2023/04/18 14:05:28;;;;;;;;;;;15.40;84.00;;;;;;5076780;28;19947;-80
2023/04/18 14:08:00;;;;;;;;;;;15.30;85.50;;;;;;5075383;28;20656;-79
2023/04/18 14:10:26;;;;;;;;;;;15.20;85.30;;;;;;5060315;28;19959;-80
2023/04/18 14:12:51;;;;;;;;;;;15.30;88.00;;;;;;5075470;28;19943;-79
2023/04/18 14:15:17;;;;;;;;;;;15.30;86.00;;;;;;5087831;28;19932;-79
2023/04/18 14:17:43;;;;;;;;;;;15.40;89.20;;;;;;5075571;28;19932;-80
2023/04/18 14:20:08;;;;;;;;;;;15.40;86.50;;;;;;5063299;28;20425;-80